ADDS METAR Data INFO
IDs: Format: Raw Decoded Include TAF

Data at: 1316 UTC 11 Dec 2017

KPHN 111255Z AUTO 00000KT 10SM CLR M10/M13 A3006 RMK AO2
KPHN 111235Z AUTO 00000KT 10SM CLR M10/M13 A3004 RMK AO2
KPHN 111215Z AUTO 00000KT 10SM CLR M10/M13 A3004 RMK AO2
KPHN 111155Z AUTO 00000KT 10SM CLR M09/M13 A3004 RMK AO2
KPHN 111135Z AUTO 34003KT 10SM BKN032 M08/M13 A3003 RMK AO2
KPHN 111115Z AUTO 34003KT 10SM OVC032 M08/M13 A3004 RMK AO2
KPHN 111055Z AUTO 32003KT 10SM OVC032 M07/M13 A3005 RMK AO2
KPHN 111035Z AUTO 30007KT 10SM OVC032 M07/M13 A3004 RMK AO2
KPHN 111015Z AUTO 31007KT 10SM OVC032 M07/M12 A3004 RMK AO2
KPHN 110955Z AUTO 32007KT 10SM OVC032 M07/M12 A3004 RMK AO2
KPHN 110935Z AUTO 33007KT 10SM OVC030 M06/M11 A3003 RMK AO2
KPHN 110915Z AUTO 32004KT 10SM BKN028 M06/M10 A3002 RMK AO2
KPHN 110856Z AUTO 32004KT 10SM SCT022 SCT027 M06/M10 A3002 RMK AO2
KPHN 110835Z AUTO 32003KT 10SM BKN022 BKN039 M06/M10 A3002 RMK AO2
KPHN 110815Z AUTO 32005KT 10SM SCT022 OVC037 M05/M10 A3001 RMK AO2
KPHN 110756Z AUTO 31005KT 10SM OVC037 M04/M09 A3001 RMK AO2
KPHN 110735Z AUTO 31006KT 10SM SCT026 SCT032 OVC039 M04/M09 A3000 RMK AO2
KPHN 110715Z AUTO 32004KT 10SM BKN023 OVC039 M04/M08 A2999 RMK AO2
KPHN 110655Z AUTO 33009KT 10SM SCT018 BKN025 OVC039 M04/M08 A2999 RMK AO2
KPHN 110635Z AUTO 32005KT 10SM SCT015 SCT020 OVC025 M04/M07 A2999 RMK AO2
KPHN 110615Z AUTO 33006KT 10SM BKN015 OVC021 M03/M07 A2998 RMK AO2
KPHN 110555Z AUTO 31007KT 10SM OVC015 M03/M06 A2998 RMK AO2
KPHN 110535Z AUTO 31006KT 10SM BKN013 OVC018 M04/M06 A2997 RMK AO2
KPHN 110515Z AUTO 28006KT 7SM -SN SCT013 BKN018 OVC028 M04/M06 A2997 RMK AO2
KPHN 110455Z AUTO 28004KT 4SM -SN BKN028 OVC036 M04/M06 A2996 RMK AO2
KPHN 110435Z AUTO 28003KT 4SM -SN BKN036 BKN044 OVC050 M04/M05 A2995 RMK AO2
KPHN 110415Z AUTO 28003KT 5SM -SN SCT024 BKN043 OVC060 M03/M05 A2994 RMK AO2
KPHN 110355Z AUTO 27005KT 2 1/2SM -SN BKN022 BKN027 OVC032 M03/M05 A2994 RMK AO2
KPHN 110335Z AUTO 28004KT 1 3/4SM -SN BKN012 OVC021 M03/M05 A2994 RMK AO2
KPHN 110315Z AUTO 28005KT 7SM -SN OVC012 M03/M05 A2994 RMK AO2
KPHN 110255Z AUTO 27004KT 10SM OVC014 M03/M05 A2994 RMK AO2
KPHN 110235Z AUTO 25004KT 10SM OVC014 M03/M06 A2994 RMK AO2
KPHN 110215Z AUTO 26004KT 10SM -SN OVC016 M03/M06 A2994 RMK AO2
KPHN 110155Z AUTO 25003KT 7SM -SN OVC018 M03/M06 A2994 RMK AO2
KPHN 110135Z AUTO 28004KT 7SM -SN OVC020 M04/M06 A2994 RMK AO2
KPHN 110115Z AUTO 26005KT 7SM -SN BKN020 OVC055 M04/M06 A2993 RMK AO2
KPHN 110055Z AUTO 25005KT 10SM -SN BKN024 BKN030 OVC055 M04/M06 A2992 RMK AO2
KPHN 110035Z AUTO 25004KT 7SM -SN BKN028 OVC032 M04/M06 A2992 RMK AO2
KPHN 110015Z AUTO 25003KT 7SM -SN BKN024 OVC055 M04/M07 A2992 RMK AO2
KPHN 102355Z AUTO 24005KT 7SM -SN OVC024 M04/M07 A2991 RMK AO2
KPHN 102335Z AUTO 23005KT 10SM -SN OVC024 M04/M08 A2991 RMK AO2
KPHN 102315Z AUTO 22004KT 10SM -SN OVC024 M04/M08 A2991 RMK AO2
KPHN 102255Z AUTO 22004KT 7SM -SN BKN024 OVC032 M04/M07 A2991 RMK AO2
KPHN 102235Z AUTO 23004KT 3SM -SN SCT029 OVC034 M04/M07 A2990 RMK AO2
KPHN 102216Z AUTO 22003KT 4SM -SN SCT024 BKN030 OVC040 M03/M08 A2989 RMK AO2
KPHN 102155Z AUTO 22005KT 10SM OVC022 M03/M08 A2988 RMK AO2
KPHN 102135Z AUTO 21005KT 10SM -SN OVC022 M03/M09 A2988 RMK AO2
KPHN 102116Z AUTO 23005KT 10SM BKN024 OVC031 M03/M09 A2987 RMK AO2
KPHN 102055Z AUTO 20005KT 10SM SCT033 OVC060 M03/M09 A2987 RMK AO2
KPHN 102035Z AUTO 22005KT 10SM SCT027 BKN041 OVC060 M03/M09 A2987 RMK AO2
KPHN 102016Z AUTO 22005KT 10SM OVC025 M03/M09 A2986 RMK AO2
KPHN 101955Z AUTO 21005KT 10SM OVC025 M03/M09 A2986 RMK AO2
KPHN 101935Z AUTO 23004KT 10SM -SN OVC027 M03/M08 A2985 RMK AO2
KPHN 101915Z AUTO 22004KT 10SM OVC025 M03/M08 A2986 RMK AO2
KPHN 101855Z AUTO 22007KT 10SM SCT025 BKN030 OVC047 M02/M08 A2986 RMK AO2
KPHN 101835Z AUTO 22005KT 10SM BKN023 OVC030 M02/M08 A2985 RMK AO2
KPHN 101815Z AUTO 21007KT 10SM BKN023 OVC030 M02/M07 A2986 RMK AO2
KPHN 101755Z AUTO 22005KT 10SM BKN020 OVC029 M03/M07 A2986 RMK AO2
KPHN 101735Z AUTO 22005KT 10SM BKN020 OVC026 M03/M07 A2987 RMK AO2
KPHN 101715Z AUTO 22007KT 10SM BKN020 OVC025 M03/M07 A2988 RMK AO2
KPHN 101655Z AUTO 23006KT 190V260 10SM OVC020 M03/M07 A2989 RMK AO2
KPHN 101635Z AUTO 23007G14KT 200V260 10SM OVC017 M03/M07 A2989 RMK AO2
KPHN 101615Z AUTO 22007G14KT 10SM BKN017 BKN027 OVC045 M03/M07 A2989 RMK AO2
KPHN 101555Z AUTO 23010G15KT 10SM BKN013 BKN035 OVC045 M03/M06 A2990 RMK AO2
KPHN 101535Z AUTO 22005KT 3SM -SN BKN013 BKN033 OVC039 M03/M06 A2990 RMK AO2
KPHN 101515Z AUTO 22005KT 2SM -SN BKN013 OVC033 M03/M06 A2990 RMK AO2
KPHN 101455Z AUTO 21006KT 2SM -SN SCT013 SCT029 OVC043 M03/M06 A2990 RMK AO2
KPHN 101435Z AUTO 22004KT 2 1/2SM -SN SCT014 BKN048 OVC060 M04/M06 A2990 RMK AO2
KPHN 101415Z AUTO 22005KT 3SM -SN SCT034 SCT046 OVC060 M04/M06 A2990 RMK AO2
KPHN 101355Z AUTO 21005KT 5SM -SN SCT034 BKN055 OVC085 M04/M07 A2990 RMK AO2
KPHN 101335Z AUTO 22005KT 10SM SCT060 BKN070 OVC085 M04/M07 A2990 RMK AO2
KPHN 101315Z AUTO 22005KT 10SM SCT050 BKN070 OVC080 M04/M07 A2991 RMK AO2
KPHN 101255Z AUTO 21005KT 10SM SCT036 BKN080 OVC085 M04/M08 A2991 RMK AO2
KPHN 101235Z AUTO 22004KT 10SM SCT028 BKN036 OVC080 M04/M08 A2991 RMK AO2
KPHN 101215Z AUTO 22003KT 10SM SCT028 OVC036 M04/M08 A2991 RMK AO2
KPHN 101155Z AUTO 22004KT 10SM OVC036 M04/M08 A2991 RMK AO2
KPHN 101135Z AUTO 00000KT 10SM OVC036 M05/M09 A2990 RMK AO2
KPHN 101115Z AUTO 23003KT 10SM OVC036 M05/M09 A2990 RMK AO2
KPHN 101055Z AUTO 00000KT 10SM SCT036 OVC042 M05/M09 A2990 RMK AO2
KPHN 101035Z AUTO 00000KT 10SM OVC040 M05/M09 A2990 RMK AO2
KPHN 101015Z AUTO 22003KT 10SM OVC040 M05/M09 A2990 RMK AO2
KPHN 100955Z AUTO 00000KT 10SM OVC042 M05/M09 A2989 RMK AO2
KPHN 100935Z AUTO 00000KT 10SM OVC044 M06/M09 A2989 RMK AO2
KPHN 100915Z AUTO 25003KT 10SM OVC046 M06/M09 A2990 RMK AO2
KPHN 100855Z AUTO 00000KT 10SM BKN048 M06/M09 A2990 RMK AO2
KPHN 100835Z AUTO 00000KT 10SM SCT050 M06/M09 A2991 RMK AO2
KPHN 100815Z AUTO 00000KT 10SM SCT050 M05/M09 A2991 RMK AO2
KPHN 100755Z AUTO 00000KT 10SM CLR M05/M09 A2991 RMK AO2
KPHN 100735Z AUTO 29006KT 10SM CLR M05/M08 A2991 RMK AO2
KPHN 100715Z AUTO 29007KT 10SM SCT017 SCT055 M04/M08 A2990 RMK AO2
KPHN 100655Z AUTO 29013G17KT 10SM OVC015 M03/M07 A2989 RMK AO2
KPHN 100635Z AUTO 29008G15KT 10SM OVC015 M03/M06 A2989 RMK AO2
KPHN 100615Z AUTO 30009KT 10SM BKN017 OVC060 M03/M06 A2988 RMK AO2
KPHN 100555Z AUTO 30007KT 10SM SCT031 OVC060 M03/M07 A2988 RMK AO2
KPHN 100535Z AUTO 30007KT 10SM BKN029 OVC060 M03/M07 A2988 RMK AO2
KPHN 100515Z AUTO 31009KT 10SM OVC027 M02/M07 A2988 RMK AO2
KPHN 100455Z AUTO 31006KT 10SM OVC025 M02/M07 A2987 RMK AO2
KPHN 100435Z AUTO 31008G14KT 10SM OVC021 M02/M06 A2986 RMK AO2
KPHN 100415Z AUTO 31009G17KT 10SM OVC017 M02/M06 A2986 RMK AO2
KPHN 100355Z AUTO 30011G15KT 10SM BKN015 BKN042 OVC050 M02/M05 A2985 RMK AO2
KPHN 100335Z AUTO 29007KT 10SM SCT015 BKN042 OVC050 M02/M05 A2984 RMK AO2
KPHN 100315Z AUTO 28008KT 10SM -SN SCT013 SCT021 OVC034 M02/M05 A2984 RMK AO2
KPHN 100255Z AUTO 29007KT 10SM SCT012 BKN032 OVC050 M02/M05 A2984 RMK AO2
KPHN 100235Z AUTO 30007KT 10SM BKN014 OVC050 M02/M05 A2983 RMK AO2
KPHN 100215Z AUTO 30006KT 10SM SCT014 OVC048 M02/M05 A2983 RMK AO2
KPHN 100155Z AUTO 28005KT 10SM SCT038 OVC046 M03/M05 A2982 RMK AO2
KPHN 100135Z AUTO 29003KT 10SM SCT036 OVC044 M03/M05 A2982 RMK AO2